IKK weather

Greater Kankakee Airport
Kankakee, Illinois, United States

Public forecast

Using degrees Fahrenheit for public forecast. Weather courtesy of forecast.io.

METAR (pilot weather report)

Retrieved 2019/05/25 04:35 UTC (0 seconds ago):

KIKK 250435Z AUTO 20011G16KT 10SM CLR 24/20 A2993 RMK AO2 T02410198

TAF (pilot weather forecast)

Forecast is more than 12 hours old.

Closest forecast is Gary Chicago International Airport, 38.1 nm (70.6 km) NNE. Retrieved 2019/05/24 00:33 UTC (1 day ago):

TAF KGYY 242330Z 2500/2524 17008KT P6SM SCT060 BKN100 FM250100 19010KT 6SM -SHRA VCTS SCT030 BKN050CB OVC100 TEMPO 2502/2505 4SM -TSRA BKN040CB FM250600 22010KT P6SM SCT025 OVC050 FM251100 22010KT 5SM -SHRA SCT025 OVC040 FM251400 22011KT P6SM VCSH SCT025 BKN035 FM251800 23013G18KT P6SM SCT035 BKN250